Time;durP1;ratioP1;P1;durP2;ratioP2;P2;SDS_P1;SDS_P2;PMS_P1;PMS_P2;Temp;Humidity;BMP_temperature;BMP_pressure;BME280_temperature;BME280_humidity;BME280_pressure;Samples;Min_cycle;Max_cycle;Signal;HPM_P1;HPM_P2
2022/05/17 00:00:09;;;;;;;11.47;3.73;;;17.00;99.90;;;;;;5018355;28;20861;-88
2022/05/17 00:02:36;;;;;;;8.13;4.23;;;17.00;99.90;;;;;;5022724;28;20493;-88
2022/05/17 00:05:04;;;;;;;6.30;3.67;;;16.90;99.90;;;;;;5032827;28;20450;-87
2022/05/17 00:07:32;;;;;;;6.63;3.77;;;16.80;99.90;;;;;;5033743;28;20454;-88
2022/05/17 00:09:59;;;;;;;8.67;3.77;;;16.80;99.90;;;;;;5022033;28;20520;-88
2022/05/17 00:12:26;;;;;;;6.40;3.40;;;16.70;99.90;;;;;;5021214;28;20504;-88
2022/05/17 00:14:53;;;;;;;11.80;4.90;;;16.70;99.90;;;;;;5020873;28;20884;-88
2022/05/17 00:17:20;;;;;;;6.93;3.80;;;16.70;99.90;;;;;;5020602;28;20565;-88
2022/05/17 00:19:47;;;;;;;9.17;4.50;;;16.70;99.90;;;;;;5020225;28;20997;-88
2022/05/17 00:22:14;;;;;;;6.60;3.63;;;16.60;99.90;;;;;;5019911;28;20665;-88
2022/05/17 00:24:43;;;;;;;7.57;4.07;;;16.60;99.90;;;;;;5020657;28;20861;-88
2022/05/17 00:27:10;;;;;;;10.20;4.20;;;16.60;99.90;;;;;;5020721;28;20446;-88
2022/05/17 00:29:37;;;;;;;8.93;4.10;;;16.60;99.90;;;;;;5019594;28;20413;-88
2022/05/17 00:32:04;;;;;;;10.40;4.10;;;16.70;99.90;;;;;;5018875;28;20468;-88
2022/05/17 00:34:32;;;;;;;7.00;3.90;;;16.70;99.90;;;;;;5019752;28;20493;-88
2022/05/17 00:36:59;;;;;;;9.87;4.23;;;16.70;99.90;;;;;;5019605;28;20432;-88
2022/05/17 00:39:27;;;;;;;9.40;4.20;;;16.70;99.90;;;;;;5019558;28;20877;-88
2022/05/17 00:41:57;;;;;;;7.30;4.37;;;16.60;99.90;;;;;;5019434;28;21024;-88
2022/05/17 00:47:13;;;;;;;7.80;4.20;;;16.60;99.90;;;;;;5022502;28;20414;-87
2022/05/17 00:49:43;;;;;;;6.07;4.30;;;16.60;99.90;;;;;;5020304;28;20847;-88
2022/05/17 00:52:14;;;;;;;8.73;3.90;;;16.50;99.90;;;;;;5019299;28;20481;-88
2022/05/17 00:54:43;;;;;;;7.77;4.40;;;16.60;99.90;;;;;;5019856;28;20474;-87
2022/05/17 00:57:19;;;;;;;6.03;3.70;;;16.60;99.90;;;;;;5021953;28;20509;-88
2022/05/17 00:59:46;;;;;;;7.73;3.90;;;16.50;99.90;;;;;;5021738;28;20442;-87
2022/05/17 01:02:14;;;;;;;5.50;3.80;;;16.50;99.90;;;;;;5019469;28;20570;-87
2022/05/17 01:04:44;;;;;;;7.20;4.47;;;16.60;99.90;;;;;;5027310;28;20450;-87
2022/05/17 01:07:15;;;;;;;7.80;4.43;;;16.50;99.90;;;;;;5023883;28;20489;-87
2022/05/17 01:09:42;;;;;;;8.90;4.43;;;16.60;99.90;;;;;;5039404;28;20442;-87
2022/05/17 01:12:10;;;;;;;5.73;3.77;;;16.60;99.90;;;;;;5039480;28;20445;-88
2022/05/17 01:14:57;;;;;;;7.50;4.00;;;16.50;99.90;;;;;;5028931;28;20470;-88
2022/05/17 01:17:24;;;;;;;7.40;4.30;;;16.60;99.90;;;;;;5027721;28;20430;-88
2022/05/17 01:19:51;;;;;;;7.17;4.33;;;16.50;99.90;;;;;;5025181;28;20454;-88
2022/05/17 01:22:19;;;;;;;6.57;4.20;;;16.40;99.90;;;;;;5035821;28;20486;-87
2022/05/17 01:24:46;;;;;;;6.20;4.30;;;16.30;99.90;;;;;;5039144;28;20501;-85
2022/05/17 01:27:17;;;;;;;8.03;3.80;;;16.30;99.90;;;;;;5026127;28;20449;-88
2022/05/17 01:29:46;;;;;;;5.67;3.93;;;16.30;99.90;;;;;;5027126;28;20462;-88
2022/05/17 01:32:14;;;;;;;5.60;3.80;;;16.30;99.90;;;;;;5019282;28;20542;-88
2022/05/17 01:34:41;;;;;;;5.93;3.60;;;16.40;99.90;;;;;;5019886;28;20486;-88
2022/05/17 01:37:11;;;;;;;5.70;3.60;;;16.40;99.90;;;;;;5025792;28;20478;-87
2022/05/17 01:39:40;;;;;;;7.10;4.37;;;16.30;99.90;;;;;;5036194;28;20475;-88
2022/05/17 01:42:10;;;;;;;6.63;3.50;;;16.30;99.90;;;;;;5036131;28;20526;-88
2022/05/17 01:44:38;;;;;;;6.40;3.50;;;16.40;99.90;;;;;;5025173;28;20434;-88
2022/05/17 01:47:05;;;;;;;7.17;3.70;;;16.40;99.90;;;;;;5022029;28;20484;-88
2022/05/17 01:49:32;;;;;;;5.70;3.70;;;16.20;99.90;;;;;;5022411;28;20458;-88
2022/05/17 01:51:59;;;;;;;7.33;4.67;;;16.10;99.90;;;;;;5022897;28;20516;-88
2022/05/17 01:54:26;;;;;;;5.37;3.73;;;16.10;99.90;;;;;;5023030;28;20536;-88
2022/05/17 01:56:54;;;;;;;9.63;4.37;;;16.10;99.90;;;;;;5021912;28;20518;-88
2022/05/17 01:59:21;;;;;;;7.43;3.90;;;16.00;99.90;;;;;;5025767;28;20815;-88
2022/05/17 02:01:48;;;;;;;6.43;3.90;;;16.10;99.90;;;;;;5022312;28;20538;-88
2022/05/17 02:04:15;;;;;;;5.97;4.00;;;16.00;99.90;;;;;;5017676;28;20534;-88
2022/05/17 02:06:43;;;;;;;5.10;3.73;;;16.00;99.90;;;;;;5017762;28;20450;-88
2022/05/17 02:09:10;;;;;;;6.53;4.20;;;16.00;99.90;;;;;;5018321;28;20837;-88
2022/05/17 02:11:37;;;;;;;7.20;3.67;;;15.90;99.90;;;;;;5018580;28;20466;-88
2022/05/17 02:14:06;;;;;;;6.43;3.87;;;15.90;99.90;;;;;;5018383;28;20538;-87
2022/05/17 02:16:36;;;;;;;5.27;3.60;;;16.00;99.90;;;;;;5017935;28;20898;-87
2022/05/17 02:19:03;;;;;;;6.40;4.10;;;16.00;99.90;;;;;;5018318;28;20820;-88
2022/05/17 02:21:30;;;;;;;6.43;3.90;;;16.00;99.90;;;;;;5017538;28;20959;-87
2022/05/17 02:23:57;;;;;;;10.77;4.07;;;16.10;99.90;;;;;;5017645;28;20954;-87
2022/05/17 02:26:24;;;;;;;6.30;3.87;;;15.90;99.90;;;;;;5017515;28;20561;-87
2022/05/17 02:28:51;;;;;;;8.23;4.27;;;15.90;99.90;;;;;;5017739;28;20454;-88
2022/05/17 02:31:19;;;;;;;7.20;4.30;;;15.90;99.90;;;;;;5017342;28;20582;-88
2022/05/17 02:33:47;;;;;;;5.20;3.47;;;15.90;99.90;;;;;;5016935;28;20480;-88
2022/05/17 02:36:14;;;;;;;5.33;3.90;;;15.90;99.90;;;;;;5017025;28;20529;-88
2022/05/17 02:38:43;;;;;;;9.10;4.40;;;15.90;99.90;;;;;;5016336;28;20505;-88
2022/05/17 02:41:10;;;;;;;6.40;4.10;;;15.80;99.90;;;;;;5028933;28;20493;-88
2022/05/17 02:43:37;;;;;;;9.10;4.13;;;15.80;99.90;;;;;;5037484;28;20442;-87
2022/05/17 02:46:04;;;;;;;8.20;4.33;;;15.70;99.90;;;;;;5020943;28;20927;-88
2022/05/17 02:48:32;;;;;;;8.10;3.87;;;15.70;99.90;;;;;;5028585;28;20438;-88
2022/05/17 02:51:08;;;;;;;7.27;3.80;;;15.70;99.90;;;;;;5024165;28;20546;-86
2022/05/17 02:53:35;;;;;;;6.83;4.07;;;15.70;99.90;;;;;;5016737;28;20858;-87
2022/05/17 02:56:02;;;;;;;11.30;4.37;;;15.70;99.90;;;;;;5028415;28;20484;-87
2022/05/17 02:58:29;;;;;;;5.63;4.03;;;15.70;99.90;;;;;;5022320;28;20458;-87
2022/05/17 03:00:56;;;;;;;8.13;4.57;;;15.60;99.90;;;;;;5018772;28;20464;-87
2022/05/17 03:03:24;;;;;;;5.90;4.00;;;15.60;99.90;;;;;;5017665;28;20489;-87
2022/05/17 03:05:52;;;;;;;12.10;4.37;;;15.60;99.90;;;;;;5017840;28;20458;-87
2022/05/17 03:08:19;;;;;;;7.93;4.33;;;15.70;99.90;;;;;;5017649;28;20617;-87
2022/05/17 03:10:48;;;;;;;8.13;4.30;;;15.80;99.90;;;;;;5020997;28;20438;-87
2022/05/17 03:13:16;;;;;;;6.50;4.23;;;15.80;99.90;;;;;;5021254;28;20456;-86
2022/05/17 03:15:43;;;;;;;5.80;4.10;;;15.70;99.90;;;;;;5020377;28;20506;-88
2022/05/17 03:18:10;;;;;;;8.00;5.10;;;15.70;99.90;;;;;;5020199;28;20514;-88
2022/05/17 03:20:37;;;;;;;7.70;4.97;;;15.60;99.90;;;;;;5018336;28;20457;-88
2022/05/17 03:23:05;;;;;;;9.23;4.40;;;15.60;99.90;;;;;;5019603;28;20454;-88
2022/05/17 03:25:32;;;;;;;7.90;4.40;;;15.50;99.90;;;;;;5019623;28;20421;-87
2022/05/17 03:27:59;;;;;;;8.20;4.20;;;15.40;99.90;;;;;;5017450;28;20549;-88
2022/05/17 03:30:26;;;;;;;7.93;4.20;;;15.40;99.90;;;;;;5016928;28;20583;-88
2022/05/17 03:32:53;;;;;;;6.63;4.10;;;15.40;99.90;;;;;;5020764;28;20522;-88
2022/05/17 03:35:20;;;;;;;6.60;4.17;;;15.30;99.90;;;;;;5024729;28;20482;-89
2022/05/17 03:37:47;;;;;;;7.50;4.73;;;15.30;99.90;;;;;;5022235;28;20450;-88
2022/05/17 03:40:15;;;;;;;7.07;4.20;;;15.30;99.90;;;;;;5016505;28;20518;-88
2022/05/17 03:45:41;;;;;;;7.20;4.63;;;15.30;99.90;;;;;;1413220;26;20977;-87
2022/05/17 03:48:17;;;;;;;9.13;4.60;;;15.30;99.90;;;;;;4964247;28;20456;-88
2022/05/17 03:53:40;;;;;;;6.60;4.13;;;15.30;99.90;;;;;;4957026;29;20488;-87
2022/05/17 03:56:12;;;;;;;6.60;5.00;;;15.40;99.90;;;;;;4962461;29;20953;-87
2022/05/17 03:59:20;;;;;;;;;;;;;;;;;;;;;
2022/05/17 04:05:14;;;;;;;6.47;4.10;;;15.40;99.90;;;;;;4922181;29;20804;-89
2022/05/17 04:07:45;;;;;;;6.77;4.23;;;15.50;99.90;;;;;;4972239;29;20544;-88
2022/05/17 04:10:22;;;;;;;6.50;4.57;;;15.40;99.90;;;;;;4973721;29;20433;-88
2022/05/17 04:13:06;;;;;;;7.03;4.50;;;15.30;99.90;;;;;;4968643;28;20531;-88
2022/05/17 04:15:40;;;;;;;5.53;4.30;;;15.30;99.90;;;;;;4963170;29;20492;-88
2022/05/17 04:18:10;;;;;;;8.17;5.40;;;15.40;99.90;;;;;;4962754;29;20454;-88
2022/05/17 04:23:39;;;;;;;9.63;4.67;;;15.30;99.90;;;;;;4971461;28;20481;-87
2022/05/17 04:29:24;;;;;;;8.03;4.83;;;15.40;99.90;;;;;;4959055;29;20461;-87
2022/05/17 04:32:10;;;;;;;8.13;5.40;;;15.30;99.90;;;;;;4971303;28;20903;-88
2022/05/17 04:37:45;;;;;;;8.50;4.40;;;15.30;99.90;;;;;;4971042;28;20954;-87
2022/05/17 04:40:22;;;;;;;8.30;4.80;;;15.30;99.90;;;;;;4966542;29;20464;-87
2022/05/17 04:42:56;;;;;;;12.43;5.40;;;15.40;99.90;;;;;;4973523;29;20500;-86
2022/05/17 04:45:54;;;;;;;;;;;;;;;;;;;;;
2022/05/17 04:48:32;;;;;;;6.40;5.00;;;15.50;99.90;;;;;;4956595;29;20886;-87
2022/05/17 04:53:53;;;;;;;8.20;5.37;;;15.50;99.90;;;;;;4962833;29;20473;-87
2022/05/17 04:56:25;;;;;;;6.17;4.63;;;15.60;99.90;;;;;;4963096;28;20919;-87
2022/05/17 04:59:00;;;;;;;9.40;5.20;;;15.60;99.90;;;;;;4962460;29;20449;-87
2022/05/17 05:01:34;;;;;;;8.37;5.50;;;15.70;99.90;;;;;;4962361;29;20424;-87
2022/05/17 05:04:07;;;;;;;9.47;5.10;;;15.80;99.90;;;;;;4965495;29;20476;-88
2022/05/17 05:06:43;;;;;;;8.00;5.23;;;15.90;99.90;;;;;;4962093;29;20450;-87
2022/05/17 05:09:27;;;;;;;7.77;5.23;;;15.90;99.90;;;;;;4962078;29;20424;-88
2022/05/17 05:12:02;;;;;;;5.97;4.50;;;16.00;99.90;;;;;;4963831;29;20452;-86
2022/05/17 05:14:41;;;;;;;7.03;5.33;;;16.10;99.90;;;;;;4964025;29;20499;-87
2022/05/17 05:17:23;;;;;;;8.10;5.23;;;16.20;99.90;;;;;;4963498;29;20453;-89
2022/05/17 05:20:15;;;;;;;8.20;5.83;;;16.30;99.90;;;;;;4973351;28;20441;-88
2022/05/17 05:22:57;;;;;;;9.70;6.00;;;16.30;99.90;;;;;;4963425;29;20495;-87
2022/05/17 05:25:32;;;;;;;12.23;5.87;;;16.40;99.90;;;;;;4963599;29;20907;-88
2022/05/17 05:28:55;;;;;;;12.07;5.80;;;16.40;99.90;;;;;;4963168;29;20504;-87
2022/05/17 05:31:35;;;;;;;9.60;6.13;;;16.60;99.90;;;;;;4964115;29;20441;-87
2022/05/17 05:34:32;;;;;;;8.30;5.50;;;16.70;99.90;;;;;;4965771;29;20508;-87
2022/05/17 05:37:05;;;;;;;7.37;5.47;;;16.80;99.90;;;;;;4962983;29;20441;-87
2022/05/17 05:39:33;;;;;;;9.03;6.00;;;16.90;99.90;;;;;;4962212;29;20457;-87
2022/05/17 05:42:02;;;;;;;10.50;5.40;;;17.00;99.90;;;;;;4961705;29;20537;-87
2022/05/17 05:44:29;;;;;;;9.33;5.93;;;17.10;99.90;;;;;;4968882;29;20490;-87
2022/05/17 05:47:06;;;;;;;9.30;6.60;;;17.10;99.90;;;;;;4970824;29;20520;-87
2022/05/17 05:49:37;;;;;;;8.23;5.87;;;17.20;99.90;;;;;;4978304;28;20453;-86
2022/05/17 05:52:05;;;;;;;10.23;6.33;;;17.40;99.90;;;;;;4966025;29;20425;-86
2022/05/17 05:54:32;;;;;;;13.60;5.77;;;17.40;99.90;;;;;;4963658;29;20493;-87
2022/05/17 05:57:00;;;;;;;7.70;5.63;;;17.50;99.90;;;;;;4969222;28;20461;-86
2022/05/17 05:59:28;;;;;;;9.50;6.07;;;17.70;99.90;;;;;;4965548;29;20505;-85
2022/05/17 06:01:55;;;;;;;11.27;7.13;;;17.90;99.90;;;;;;4963400;29;20480;-86
2022/05/17 06:04:22;;;;;;;10.43;6.97;;;18.00;99.90;;;;;;4969488;29;20465;-88
2022/05/17 06:06:50;;;;;;;8.23;5.83;;;18.00;99.90;;;;;;4975546;29;20530;-86
2022/05/17 06:09:17;;;;;;;7.47;6.03;;;18.20;99.90;;;;;;4979523;28;20466;-85
2022/05/17 06:11:43;;;;;;;7.57;5.10;;;18.30;99.90;;;;;;4979969;28;20476;-84
2022/05/17 06:14:11;;;;;;;7.77;6.20;;;18.50;99.90;;;;;;4971125;29;20505;-86
2022/05/17 06:16:38;;;;;;;7.20;5.60;;;18.50;99.90;;;;;;4978186;29;20481;-87
2022/05/17 06:19:06;;;;;;;9.93;5.17;;;18.60;99.90;;;;;;4973517;29;20451;-86
2022/05/17 06:21:34;;;;;;;9.30;6.80;;;18.80;99.90;;;;;;4965214;29;20468;-86
2022/05/17 06:24:02;;;;;;;11.70;6.63;;;18.80;99.90;;;;;;4964920;29;20492;-86
2022/05/17 06:26:31;;;;;;;12.83;6.30;;;18.80;99.90;;;;;;4964061;29;20453;-86
2022/05/17 06:28:58;;;;;;;8.90;5.93;;;18.90;99.90;;;;;;4964281;29;20832;-87
2022/05/17 06:31:27;;;;;;;10.33;5.93;;;18.90;99.90;;;;;;4967464;29;20480;-87
2022/05/17 06:33:57;;;;;;;9.30;5.60;;;19.10;99.90;;;;;;4966645;29;20544;-87
2022/05/17 06:36:27;;;;;;;9.73;6.70;;;19.20;99.90;;;;;;4966241;29;20492;-87
2022/05/17 06:38:54;;;;;;;9.50;5.30;;;19.50;99.90;;;;;;4966324;29;20541;-87
2022/05/17 06:41:27;;;;;;;10.80;5.73;;;19.60;99.90;;;;;;4963905;29;20465;-88
2022/05/17 06:43:57;;;;;;;10.13;6.87;;;19.80;99.90;;;;;;4963206;29;20461;-87
2022/05/17 06:46:39;;;;;;;9.67;7.20;;;19.80;99.90;;;;;;4960680;28;20468;-88
2022/05/17 06:49:09;;;;;;;9.33;6.27;;;19.80;99.90;;;;;;4971020;28;20437;-88
2022/05/17 06:51:41;;;;;;;8.67;7.40;;;19.90;99.90;;;;;;4966920;29;20473;-87
2022/05/17 06:54:13;;;;;;;13.57;6.90;;;19.90;99.90;;;;;;4966830;29;20990;-87
2022/05/17 07:00:05;;;;;;;9.70;6.70;;;20.10;99.90;;;;;;4949752;29;20441;-87
2022/05/17 07:02:33;;;;;;;9.57;6.40;;;20.10;99.90;;;;;;4972792;29;20449;-87
2022/05/17 07:05:00;;;;;;;13.67;6.90;;;20.10;99.90;;;;;;4972462;28;20445;-87
2022/05/17 07:07:35;;;;;;;10.20;6.93;;;20.10;99.90;;;;;;4970639;29;20459;-86
2022/05/17 07:15:32;;;;;;;9.43;7.50;;;20.20;99.90;;;;;;4962319;29;20560;-87
2022/05/17 07:18:00;;;;;;;12.13;7.10;;;20.20;99.90;;;;;;4962362;29;20457;-87
2022/05/17 07:20:27;;;;;;;10.57;6.70;;;20.10;99.90;;;;;;4961054;28;20468;-88
2022/05/17 07:23:05;;;;;;;9.93;6.33;;;20.10;99.90;;;;;;4965426;28;20555;-87
2022/05/17 07:28:51;;;;;;;12.60;7.80;;;20.20;99.90;;;;;;4923697;28;21081;-85
2022/05/17 07:31:18;;;;;;;10.00;7.43;;;20.30;99.90;;;;;;4967292;29;20454;-86
2022/05/17 07:33:47;;;;;;;9.77;7.23;;;20.40;99.90;;;;;;4962161;29;20572;-86
2022/05/17 07:36:32;;;;;;;10.10;6.77;;;20.50;99.90;;;;;;4961120;28;20512;-87
2022/05/17 07:39:04;;;;;;;9.93;6.07;;;20.70;99.90;;;;;;4960002;28;20824;-86
2022/05/17 07:41:31;;;;;;;9.83;6.93;;;20.90;99.90;;;;;;4958405;28;20441;-86
2022/05/17 07:44:05;;;;;;;8.30;6.63;;;21.00;99.90;;;;;;4961529;28;20536;-86
2022/05/17 07:46:32;;;;;;;13.00;8.47;;;21.10;99.90;;;;;;4960039;29;20952;-87
2022/05/17 07:48:59;;;;;;;13.03;7.10;;;21.20;99.90;;;;;;4959777;29;20489;-86
2022/05/17 07:51:27;;;;;;;8.20;5.73;;;21.20;99.90;;;;;;4974652;29;20441;-87
2022/05/17 07:53:54;;;;;;;8.00;6.40;;;21.40;99.90;;;;;;4967484;29;20481;-87
2022/05/17 07:56:22;;;;;;;11.33;6.40;;;21.30;99.90;;;;;;4968025;29;20469;-87
2022/05/17 07:58:51;;;;;;;9.20;5.70;;;21.30;99.90;;;;;;4961810;29;20469;-87
2022/05/17 08:01:19;;;;;;;8.60;5.40;;;21.40;99.90;;;;;;4960774;28;20449;-87
2022/05/17 08:03:49;;;;;;;8.17;5.27;;;21.40;99.90;;;;;;4960036;29;20992;-87
2022/05/17 08:06:16;;;;;;;8.87;5.43;;;21.70;99.90;;;;;;4961040;29;20457;-88
2022/05/17 08:08:43;;;;;;;10.97;5.30;;;21.80;99.90;;;;;;4960799;29;20853;-87
2022/05/17 08:11:13;;;;;;;9.53;5.20;;;22.00;99.90;;;;;;4960383;29;20946;-87
2022/05/17 08:13:43;;;;;;;12.30;7.20;;;21.70;99.90;;;;;;4969352;28;20834;-87
2022/05/17 08:16:10;;;;;;;8.80;4.97;;;21.80;99.90;;;;;;4965110;28;20488;-87
2022/05/17 08:18:40;;;;;;;7.37;4.90;;;21.80;99.90;;;;;;4966594;29;20473;-86
2022/05/17 08:21:07;;;;;;;8.63;5.80;;;21.90;99.90;;;;;;4973219;29;20777;-87
2022/05/17 08:23:34;;;;;;;7.03;5.10;;;22.00;99.90;;;;;;4959666;29;20481;-87
2022/05/17 08:28:49;;;;;;;6.43;4.67;;;22.20;99.90;;;;;;4963178;29;20422;-86
2022/05/17 08:31:16;;;;;;;8.67;4.80;;;22.20;99.90;;;;;;4970581;28;20452;-87
2022/05/17 08:33:43;;;;;;;6.37;4.90;;;22.30;99.90;;;;;;4966977;29;20847;-88
2022/05/17 08:36:15;;;;;;;9.13;5.30;;;22.30;99.90;;;;;;4972428;28;20457;-86
2022/05/17 08:38:46;;;;;;;6.67;5.30;;;22.10;99.90;;;;;;4968959;29;20464;-87
2022/05/17 08:41:24;;;;;;;7.93;4.83;;;22.30;99.90;;;;;;4965788;28;20481;-87
2022/05/17 08:43:56;;;;;;;9.13;4.43;;;22.30;99.90;;;;;;4968029;29;20481;-86
2022/05/17 08:46:55;;;;;;;8.23;4.73;;;22.30;99.90;;;;;;4968168;29;20496;-86
2022/05/17 08:49:26;;;;;;;10.27;4.13;;;22.20;99.90;;;;;;4969513;29;20455;-86
2022/05/17 08:51:57;;;;;;;7.03;4.30;;;22.20;99.90;;;;;;4968113;29;20457;-85
2022/05/17 08:54:29;;;;;;;8.13;5.00;;;22.40;99.90;;;;;;4966115;29;20574;-87
2022/05/17 08:57:07;;;;;;;7.60;4.33;;;22.60;99.90;;;;;;4969500;28;20489;-87
2022/05/17 08:59:37;;;;;;;8.70;4.83;;;22.70;99.90;;;;;;4966653;29;20461;-86
2022/05/17 09:02:11;;;;;;;13.27;4.37;;;22.70;99.90;;;;;;4967713;29;20464;-85
2022/05/17 09:04:53;;;;;;;7.93;4.93;;;22.70;99.90;;;;;;4966810;29;20532;-86
2022/05/17 09:07:27;;;;;;;6.20;4.30;;;22.70;99.90;;;;;;4967429;29;20465;-87
2022/05/17 09:10:26;;;;;;;9.13;4.83;;;22.90;99.90;;;;;;4968496;29;20442;-88
2022/05/17 09:13:33;;;;;;;10.70;4.40;;;23.20;99.90;;;;;;4964648;28;20469;-85
2022/05/17 09:16:22;;;;;;;11.90;5.37;;;23.40;99.90;;;;;;4981030;28;20473;-85
2022/05/17 09:18:55;;;;;;;8.37;5.80;;;23.30;99.50;;;;;;4980486;28;20449;-85
2022/05/17 09:25:36;;;;;;;9.37;4.07;;;23.50;98.30;;;;;;4942623;28;20568;-86
2022/05/17 09:28:42;;;;;;;6.03;4.50;;;23.50;97.70;;;;;;4966977;29;20449;-88
2022/05/17 09:31:17;;;;;;;8.67;4.83;;;23.50;98.00;;;;;;4964556;28;20505;-88
2022/05/17 09:33:53;;;;;;;8.70;5.17;;;23.50;98.30;;;;;;4968942;29;20491;-88
2022/05/17 09:36:23;;;;;;;7.10;5.00;;;23.60;98.20;;;;;;4966700;29;20476;-88
2022/05/17 09:38:53;;;;;;;8.83;5.50;;;23.70;97.70;;;;;;4966146;29;20472;-88
2022/05/17 09:41:34;;;;;;;6.90;4.53;;;23.80;97.70;;;;;;4963288;29;20488;-87
2022/05/17 09:44:11;;;;;;;8.60;4.90;;;23.80;97.60;;;;;;4971986;28;20477;-86
2022/05/17 09:46:45;;;;;;;7.40;4.10;;;23.80;97.50;;;;;;5006182;22;20494;-87
2022/05/17 09:54:55;;;;;;;7.80;5.23;;;23.60;97.80;;;;;;5001454;28;20466;-88
2022/05/17 09:57:30;;;;;;;10.10;5.77;;;23.60;97.70;;;;;;5001470;28;20865;-88
2022/05/17 10:00:12;;;;;;;6.90;4.73;;;23.70;97.50;;;;;;5010822;28;20468;-88
2022/05/17 10:02:49;;;;;;;14.63;5.80;;;23.80;97.20;;;;;;5002039;28;20440;-88
2022/05/17 10:05:24;;;;;;;9.40;5.10;;;23.70;97.30;;;;;;5002204;28;20471;-88
2022/05/17 10:07:59;;;;;;;7.30;4.90;;;23.80;97.30;;;;;;5001683;28;20847;-88
2022/05/17 10:10:32;;;;;;;10.00;4.87;;;23.90;97.30;;;;;;5002541;28;20444;-88
2022/05/17 10:13:14;;;;;;;12.23;4.93;;;24.00;96.70;;;;;;5002909;28;20463;-87
2022/05/17 10:15:45;;;;;;;9.10;6.17;;;23.90;96.10;;;;;;5002477;28;20930;-88
2022/05/17 10:18:28;;;;;;;10.27;5.47;;;23.70;96.70;;;;;;5006075;28;20471;-87
2022/05/17 10:21:00;;;;;;;7.13;4.67;;;23.60;97.00;;;;;;5012062;28;20439;-88
2022/05/17 10:23:36;;;;;;;9.30;5.90;;;23.50;97.20;;;;;;5002871;28;20422;-87
2022/05/17 10:26:08;;;;;;;10.40;5.80;;;23.50;97.30;;;;;;5002865;28;20893;-87
2022/05/17 10:28:42;;;;;;;7.77;5.20;;;23.30;97.30;;;;;;5001826;28;20447;-87
2022/05/17 10:31:36;;;;;;;7.00;5.17;;;23.20;97.60;;;;;;4999638;28;20467;-87
2022/05/17 10:34:21;;;;;;;7.90;4.93;;;23.50;97.60;;;;;;4999812;28;20443;-87
2022/05/17 10:36:52;;;;;;;7.70;4.90;;;23.80;97.20;;;;;;4999754;28;20487;-88
2022/05/17 10:39:30;;;;;;;6.90;4.30;;;24.10;96.20;;;;;;5000160;28;20452;-88
2022/05/17 10:41:58;;;;;;;7.30;4.87;;;24.10;95.40;;;;;;4999912;28;20486;-87
2022/05/17 10:44:42;;;;;;;6.40;4.60;;;23.90;95.30;;;;;;4998896;28;20613;-88
2022/05/17 10:47:37;;;;;;;9.40;5.60;;;23.80;95.50;;;;;;4997960;28;20502;-87
2022/05/17 10:50:29;;;;;;;10.10;5.23;;;23.80;95.20;;;;;;4998883;28;20486;-86
2022/05/17 10:53:30;;;;;;;8.90;5.17;;;23.70;95.30;;;;;;5015920;28;20447;-87
2022/05/17 10:56:28;;;;;;;8.30;5.30;;;23.60;95.70;;;;;;5016459;28;20498;-85
2022/05/17 10:59:07;;;;;;;8.60;5.20;;;23.80;95.90;;;;;;5013805;28;20479;-87
2022/05/17 11:01:43;;;;;;;7.47;4.60;;;24.10;95.30;;;;;;5003127;28;20443;-86
2022/05/17 11:07:27;;;;;;;8.80;4.60;;;24.30;94.50;;;;;;4994454;28;20452;-87
2022/05/17 11:10:02;;;;;;;7.13;4.43;;;24.40;94.00;;;;;;5001282;28;20478;-87
2022/05/17 11:12:34;;;;;;;6.20;4.30;;;24.50;93.60;;;;;;4999735;28;20920;-87
2022/05/17 11:15:08;;;;;;;9.33;5.00;;;24.50;93.00;;;;;;4998151;28;20451;-87
2022/05/17 11:17:41;;;;;;;8.93;5.10;;;24.50;93.00;;;;;;4997204;28;21000;-88
2022/05/17 11:20:16;;;;;;;6.60;4.53;;;24.60;92.80;;;;;;4997789;28;20519;-87
2022/05/17 11:22:51;;;;;;;7.53;5.60;;;24.60;92.30;;;;;;4999767;28;20511;-87
2022/05/17 11:25:43;;;;;;;7.00;4.40;;;24.70;92.40;;;;;;4996554;28;20424;-87
2022/05/17 11:28:45;;;;;;;6.90;4.50;;;24.80;92.00;;;;;;4998461;28;20487;-87
2022/05/17 11:31:17;;;;;;;6.90;4.20;;;24.80;91.70;;;;;;4997536;28;20563;-87
2022/05/17 11:33:54;;;;;;;7.60;4.10;;;24.50;90.80;;;;;;4999458;28;20462;-87
2022/05/17 11:36:43;;;;;;;8.47;4.87;;;24.50;91.40;;;;;;4998303;28;20491;-87
2022/05/17 11:39:48;;;;;;;9.30;4.17;;;24.50;91.30;;;;;;4989511;28;20461;-88
2022/05/17 11:42:35;;;;;;;7.03;4.03;;;24.50;91.00;;;;;;4998873;28;20517;-88
2022/05/17 11:45:23;;;;;;;7.73;4.20;;;24.70;90.60;;;;;;4999345;28;20908;-87
2022/05/17 11:48:22;;;;;;;7.45;4.57;;;24.80;90.40;;;;;;4954358;28;1507404;-87
2022/05/17 11:51:03;;;;;;;10.50;4.20;;;24.80;90.30;;;;;;4999958;28;20208;-87
2022/05/17 11:53:54;;;;;;;8.60;4.37;;;24.70;89.00;;;;;;5005179;28;20809;-87
2022/05/17 11:56:57;;;;;;;;;;;;;;;;;;;;;
2022/05/17 11:59:45;;;;;;;5.37;3.60;;;24.60;89.20;;;;;;5000242;28;20826;-87
2022/05/17 12:02:43;;;;;;;8.53;3.87;;;24.40;88.90;;;;;;5000050;28;20463;-87
2022/05/17 12:05:12;;;;;;;7.23;3.57;;;24.60;87.10;;;;;;4997620;28;20575;-87
2022/05/17 12:07:43;;;;;;;6.20;3.37;;;24.90;86.60;;;;;;4999826;28;20482;-87
2022/05/17 12:10:41;;;;;;;4.70;2.63;;;25.10;84.70;;;;;;5001919;28;20517;-87
2022/05/17 12:13:20;;;;;;;8.80;3.10;;;25.10;81.00;;;;;;5003223;28;20467;-87
2022/05/17 12:15:54;;;;;;;6.60;2.63;;;24.90;79.70;;;;;;5011408;28;20455;-87
2022/05/17 12:18:59;;;;;;;9.80;3.10;;;25.00;78.80;;;;;;5002376;28;20520;-88
2022/05/17 12:22:26;;;;;;;7.93;2.93;;;25.10;80.50;;;;;;4970092;28;20478;-88
2022/05/17 12:25:08;;;;;;;4.17;2.30;;;25.20;80.90;;;;;;4985312;28;20479;-87
2022/05/17 12:27:47;;;;;;;4.60;2.80;;;25.10;76.60;;;;;;5002339;28;20470;-88
2022/05/17 12:33:11;;;;;;;5.10;2.80;;;25.00;77.70;;;;;;5002208;28;20458;-87
2022/05/17 12:35:41;;;;;;;6.00;2.70;;;25.00;78.40;;;;;;5016093;28;20522;-85
2022/05/17 12:43:45;;;;;;;6.40;3.50;;;25.10;80.70;;;;;;5007055;28;20494;-85
2022/05/17 12:46:21;;;;;;;4.17;2.90;;;25.20;79.50;;;;;;5001423;28;20443;-88
2022/05/17 12:49:13;;;;;;;4.40;2.60;;;25.20;79.90;;;;;;5000157;28;20427;-88
2022/05/17 12:54:52;;;;;;;5.63;2.87;;;25.20;78.10;;;;;;4999083;28;20833;-88
2022/05/17 12:57:26;;;;;;;6.70;2.90;;;25.30;77.50;;;;;;5000901;28;20545;-87
2022/05/17 13:00:19;;;;;;;5.63;2.00;;;25.30;77.70;;;;;;5002470;28;20434;-88
2022/05/17 13:02:51;;;;;;;4.40;2.20;;;25.20;77.00;;;;;;5000908;28;20416;-88
2022/05/17 13:05:36;;;;;;;4.00;2.13;;;25.10;76.70;;;;;;5000527;28;20443;-87
2022/05/17 13:08:21;;;;;;;4.20;2.57;;;25.00;76.70;;;;;;5006416;28;20455;-87
2022/05/17 13:11:12;;;;;;;4.00;2.13;;;24.90;76.50;;;;;;5019426;28;20431;-85
2022/05/17 13:14:14;;;;;;;3.40;1.80;;;25.10;76.30;;;;;;5019645;28;20486;-87
2022/05/17 13:27:12;;;;;;;5.40;2.30;;;25.70;70.30;;;;;;4994832;28;20823;-88
2022/05/17 13:40:02;;;;;;;7.00;2.83;;;25.70;72.00;;;;;;4944026;28;20430;-87
2022/05/17 13:43:36;;;;;;;4.73;2.27;;;25.50;72.20;;;;;;4999476;28;20451;-87
2022/05/17 14:13:05;;;;;;;;;;;;;;;;;;;;;
2022/05/17 14:27:48;;;;;;;4.07;1.53;;;26.80;62.00;;;;;;4936570;29;20459;-86
2022/05/17 14:30:43;;;;;;;4.30;2.20;;;26.70;63.50;;;;;;4995524;28;20506;-88
2022/05/17 14:33:13;;;;;;;4.30;2.00;;;26.80;63.80;;;;;;5001884;28;20451;-88
2022/05/17 14:35:46;;;;;;;5.83;2.90;;;26.70;64.10;;;;;;5002276;28;20443;-87
2022/05/17 14:38:13;;;;;;;4.90;2.20;;;27.20;64.10;;;;;;5002106;28;20482;-87
2022/05/17 14:40:51;;;;;;;5.20;2.10;;;27.60;62.80;;;;;;5004689;28;20689;-87
2022/05/17 14:43:27;;;;;;;4.00;2.30;;;28.00;61.90;;;;;;5006141;28;20447;-88
2022/05/17 14:48:55;;;;;;;4.60;2.37;;;27.80;60.80;;;;;;4976411;28;20439;-87
2022/05/17 14:51:50;;;;;;;;;;;;;;;;;;;;;
2022/05/17 15:04:35;;;;;;;5.73;2.50;;;26.70;64.40;;;;;;4907548;29;20938;-89
2022/05/17 15:07:30;;;;;;;4.37;2.10;;;26.60;65.00;;;;;;4960468;29;20461;-88
2022/05/17 15:10:27;;;;;;;4.10;1.97;;;27.00;63.60;;;;;;4959136;29;20481;-89
2022/05/17 15:13:28;;;;;;;5.87;2.30;;;27.50;63.10;;;;;;4960441;29;20468;-88
2022/05/17 15:16:13;;;;;;;5.00;2.40;;;28.00;61.70;;;;;;4992747;28;20788;-88
2022/05/17 15:19:02;;;;;;;4.60;2.57;;;28.40;59.60;;;;;;5002481;28;20534;-88
2022/05/17 15:37:48;;;;;;;5.53;2.60;;;28.90;57.00;;;;;;4912349;29;20501;-88
2022/05/17 15:40:50;;;;;;;4.00;2.20;;;28.30;57.40;;;;;;4958703;28;20522;-87
2022/05/17 15:44:21;;;;;;;5.70;2.43;;;28.40;58.30;;;;;;5003598;28;20466;-87
2022/05/17 15:57:50;;;;;;;4.20;2.00;;;28.90;57.80;;;;;;3313411;26;20981;-90
2022/05/17 16:00:18;;;;;;;4.60;2.90;;;29.20;56.50;;;;;;4964834;29;20449;-90
2022/05/17 16:02:46;;;;;;;5.30;3.07;;;28.90;59.00;;;;;;4968499;28;20453;-87
2022/05/17 16:05:17;;;;;;;5.40;3.40;;;28.60;60.50;;;;;;4981481;28;20488;-88
2022/05/17 16:10:31;;;;;;;5.87;3.30;;;28.80;61.30;;;;;;4973013;29;20433;-88
2022/05/17 16:12:59;;;;;;;5.80;2.70;;;28.80;60.90;;;;;;4969743;29;20527;-89
2022/05/17 16:15:30;;;;;;;4.63;3.10;;;28.60;60.80;;;;;;4971530;29;20467;-88